sensor_id;sensor_type;location;lat;lon;timestamp;pressure;altitude;pressure_sealevel;temperature;humidity
4617;BME280;2321;42.704;23.384;2022-09-09T00:00:28;95666.53;;;19.76;nan
4617;BME280;2321;42.704;23.384;2022-09-09T00:03:06;95661.06;;;19.71;nan
4617;BME280;2321;42.704;23.384;2022-09-09T00:05:41;95655.66;;;19.71;nan
4617;BME280;2321;42.704;23.384;2022-09-09T00:08:17;95653.53;;;19.73;nan
4617;BME280;2321;42.704;23.384;2022-09-09T00:10:49;95659.19;;;19.72;nan
4617;BME280;2321;42.704;23.384;2022-09-09T00:13:24;95651.78;;;19.67;nan
4617;BME280;2321;42.704;23.384;2022-09-09T00:15:57;95655.56;;;19.66;nan
4617;BME280;2321;42.704;23.384;2022-09-09T00:18:32;95659.06;;;19.66;nan
4617;BME280;2321;42.704;23.384;2022-09-09T00:21:06;95658.50;;;19.64;nan
4617;BME280;2321;42.704;23.384;2022-09-09T00:23:37;95658.91;;;19.56;nan
4617;BME280;2321;42.704;23.384;2022-09-09T00:26:09;95651.44;;;19.46;nan
4617;BME280;2321;42.704;23.384;2022-09-09T00:28:47;95642.53;;;19.45;nan
4617;BME280;2321;42.704;23.384;2022-09-09T00:31:22;95635.53;;;19.32;nan
4617;BME280;2321;42.704;23.384;2022-09-09T00:33:52;95636.50;;;19.26;nan
4617;BME280;2321;42.704;23.384;2022-09-09T00:36:22;95627.28;;;19.22;nan
4617;BME280;2321;42.704;23.384;2022-09-09T00:38:55;95622.94;;;19.21;nan
4617;BME280;2321;42.704;23.384;2022-09-09T00:41:31;95622.81;;;19.15;nan
4617;BME280;2321;42.704;23.384;2022-09-09T00:44:17;95628.31;;;19.21;nan
4617;BME280;2321;42.704;23.384;2022-09-09T00:46:56;95606.00;;;18.96;nan
4617;BME280;2321;42.704;23.384;2022-09-09T00:49:38;95614.84;;;19.09;nan
4617;BME280;2321;42.704;23.384;2022-09-09T00:52:23;95616.88;;;19.01;nan
4617;BME280;2321;42.704;23.384;2022-09-09T00:54:58;95620.88;;;18.99;nan
4617;BME280;2321;42.704;23.384;2022-09-09T00:57:31;95623.56;;;18.99;nan
4617;BME280;2321;42.704;23.384;2022-09-09T01:00:16;95624.06;;;18.95;nan
4617;BME280;2321;42.704;23.384;2022-09-09T01:02:51;95617.13;;;19.00;nan
4617;BME280;2321;42.704;23.384;2022-09-09T01:05:26;95624.25;;;19.06;nan
4617;BME280;2321;42.704;23.384;2022-09-09T01:07:53;95623.22;;;19.07;nan
4617;BME280;2321;42.704;23.384;2022-09-09T01:10:27;95621.78;;;19.04;nan
4617;BME280;2321;42.704;23.384;2022-09-09T01:13:04;95614.91;;;18.97;nan
4617;BME280;2321;42.704;23.384;2022-09-09T01:15:38;95616.78;;;18.96;nan
4617;BME280;2321;42.704;23.384;2022-09-09T01:18:08;95620.22;;;18.91;nan
4617;BME280;2321;42.704;23.384;2022-09-09T01:20:45;95625.00;;;18.89;nan
4617;BME280;2321;42.704;23.384;2022-09-09T01:23:38;95630.09;;;18.86;nan
4617;BME280;2321;42.704;23.384;2022-09-09T01:26:18;95624.56;;;18.80;nan
4617;BME280;2321;42.704;23.384;2022-09-09T01:28:47;95628.66;;;18.83;nan
4617;BME280;2321;42.704;23.384;2022-09-09T01:31:18;95624.91;;;18.84;nan
4617;BME280;2321;42.704;23.384;2022-09-09T01:33:46;95624.91;;;18.84;nan
4617;BME280;2321;42.704;23.384;2022-09-09T01:36:21;95623.31;;;18.71;nan
4617;BME280;2321;42.704;23.384;2022-09-09T01:38:52;95624.97;;;18.72;nan
4617;BME280;2321;42.704;23.384;2022-09-09T01:41:21;95614.69;;;18.57;nan
4617;BME280;2321;42.704;23.384;2022-09-09T01:43:48;95629.81;;;18.58;nan
4617;BME280;2321;42.704;23.384;2022-09-09T01:46:16;95635.31;;;18.63;nan
4617;BME280;2321;42.704;23.384;2022-09-09T01:48:45;95639.03;;;18.62;nan
4617;BME280;2321;42.704;23.384;2022-09-09T01:51:12;95639.41;;;18.54;nan
4617;BME280;2321;42.704;23.384;2022-09-09T01:53:40;95636.41;;;18.38;nan
4617;BME280;2321;42.704;23.384;2022-09-09T01:56:16;95644.00;;;18.41;nan
4617;BME280;2321;42.704;23.384;2022-09-09T01:58:57;95639.78;;;18.45;nan
4617;BME280;2321;42.704;23.384;2022-09-09T02:01:35;95637.31;;;18.44;nan
4617;BME280;2321;42.704;23.384;2022-09-09T02:04:14;95635.56;;;18.37;nan
4617;BME280;2321;42.704;23.384;2022-09-09T02:06:45;95639.91;;;18.38;nan
4617;BME280;2321;42.704;23.384;2022-09-09T02:09:19;95640.97;;;18.37;nan
4617;BME280;2321;42.704;23.384;2022-09-09T02:11:49;95632.06;;;18.37;nan
4617;BME280;2321;42.704;23.384;2022-09-09T02:14:24;95638.50;;;18.36;nan
4617;BME280;2321;42.704;23.384;2022-09-09T02:16:54;95630.44;;;18.36;nan
4617;BME280;2321;42.704;23.384;2022-09-09T02:19:27;95627.63;;;18.31;nan
4617;BME280;2321;42.704;23.384;2022-09-09T02:21:59;95622.34;;;18.24;nan
4617;BME280;2321;42.704;23.384;2022-09-09T02:24:29;95620.94;;;18.21;nan
4617;BME280;2321;42.704;23.384;2022-09-09T02:26:59;95620.81;;;18.28;nan
4617;BME280;2321;42.704;23.384;2022-09-09T02:29:33;95599.97;;;18.11;nan
4617;BME280;2321;42.704;23.384;2022-09-09T02:32:03;95622.94;;;18.26;nan
4617;BME280;2321;42.704;23.384;2022-09-09T02:34:34;95626.53;;;18.19;nan
4617;BME280;2321;42.704;23.384;2022-09-09T02:37:03;95625.06;;;18.24;nan
4617;BME280;2321;42.704;23.384;2022-09-09T02:39:30;95630.06;;;18.20;nan
4617;BME280;2321;42.704;23.384;2022-09-09T02:41:57;95633.47;;;18.15;nan
4617;BME280;2321;42.704;23.384;2022-09-09T02:44:25;95639.56;;;18.23;nan
4617;BME280;2321;42.704;23.384;2022-09-09T02:47:07;95638.34;;;18.18;nan
4617;BME280;2321;42.704;23.384;2022-09-09T02:49:45;95635.91;;;18.17;nan
4617;BME280;2321;42.704;23.384;2022-09-09T02:52:19;95640.59;;;18.10;nan
4617;BME280;2321;42.704;23.384;2022-09-09T02:54:50;95646.22;;;18.20;nan
4617;BME280;2321;42.704;23.384;2022-09-09T02:57:23;95645.03;;;18.16;nan
4617;BME280;2321;42.704;23.384;2022-09-09T02:59:53;95646.81;;;18.10;nan
4617;BME280;2321;42.704;23.384;2022-09-09T03:02:24;95637.22;;;18.02;nan
4617;BME280;2321;42.704;23.384;2022-09-09T03:04:52;95635.56;;;18.13;nan
4617;BME280;2321;42.704;23.384;2022-09-09T03:07:19;95644.72;;;18.12;nan
4617;BME280;2321;42.704;23.384;2022-09-09T03:09:46;95651.50;;;18.03;nan
4617;BME280;2321;42.704;23.384;2022-09-09T03:12:13;95648.56;;;18.04;nan
4617;BME280;2321;42.704;23.384;2022-09-09T03:14:40;95647.72;;;17.92;nan
4617;BME280;2321;42.704;23.384;2022-09-09T03:17:09;95645.66;;;17.94;nan
4617;BME280;2321;42.704;23.384;2022-09-09T03:19:37;95641.88;;;17.83;nan
4617;BME280;2321;42.704;23.384;2022-09-09T03:22:05;95649.38;;;17.81;nan
4617;BME280;2321;42.704;23.384;2022-09-09T03:24:32;95646.66;;;17.69;nan
4617;BME280;2321;42.704;23.384;2022-09-09T03:26:59;95642.06;;;17.57;nan
4617;BME280;2321;42.704;23.384;2022-09-09T03:29:26;95635.59;;;17.46;nan
4617;BME280;2321;42.704;23.384;2022-09-09T03:31:53;95633.38;;;17.43;nan
4617;BME280;2321;42.704;23.384;2022-09-09T03:34:20;95636.19;;;17.48;nan
4617;BME280;2321;42.704;23.384;2022-09-09T03:36:48;95641.94;;;17.52;nan
4617;BME280;2321;42.704;23.384;2022-09-09T03:39:15;95645.56;;;17.58;nan
4617;BME280;2321;42.704;23.384;2022-09-09T03:41:42;95642.75;;;17.52;nan
4617;BME280;2321;42.704;23.384;2022-09-09T03:44:11;95644.22;;;17.36;nan
4617;BME280;2321;42.704;23.384;2022-09-09T03:46:38;95640.69;;;17.24;nan
4617;BME280;2321;42.704;23.384;2022-09-09T03:49:05;95639.72;;;17.18;nan
4617;BME280;2321;42.704;23.384;2022-09-09T03:51:32;95645.03;;;17.25;nan
4617;BME280;2321;42.704;23.384;2022-09-09T03:54:04;95648.75;;;17.24;nan
4617;BME280;2321;42.704;23.384;2022-09-09T03:56:33;95656.50;;;17.20;nan
4617;BME280;2321;42.704;23.384;2022-09-09T03:59:00;95647.72;;;17.25;nan
4617;BME280;2321;42.704;23.384;2022-09-09T04:01:28;95643.38;;;17.24;nan
4617;BME280;2321;42.704;23.384;2022-09-09T04:03:55;95646.59;;;17.14;nan
4617;BME280;2321;42.704;23.384;2022-09-09T04:06:24;95652.53;;;17.04;nan
4617;BME280;2321;42.704;23.384;2022-09-09T04:08:51;95649.25;;;17.02;nan
4617;BME280;2321;42.704;23.384;2022-09-09T04:11:20;95648.03;;;16.97;nan
4617;BME280;2321;42.704;23.384;2022-09-09T04:13:47;95651.94;;;17.02;nan
4617;BME280;2321;42.704;23.384;2022-09-09T04:16:14;95653.94;;;17.06;nan
4617;BME280;2321;42.704;23.384;2022-09-09T04:18:42;95654.25;;;16.98;nan
4617;BME280;2321;42.704;23.384;2022-09-09T04:21:10;95650.16;;;16.95;nan
4617;BME280;2321;42.704;23.384;2022-09-09T04:23:37;95640.19;;;16.96;nan
4617;BME280;2321;42.704;23.384;2022-09-09T04:26:05;95640.84;;;17.10;nan
4617;BME280;2321;42.704;23.384;2022-09-09T04:28:35;95645.19;;;17.11;nan
4617;BME280;2321;42.704;23.384;2022-09-09T04:31:07;95641.22;;;17.14;nan
4617;BME280;2321;42.704;23.384;2022-09-09T04:33:35;95641.81;;;17.16;nan
4617;BME280;2321;42.704;23.384;2022-09-09T04:36:04;95649.28;;;17.14;nan
4617;BME280;2321;42.704;23.384;2022-09-09T04:38:31;95643.25;;;17.18;nan
4617;BME280;2321;42.704;23.384;2022-09-09T04:40:58;95639.13;;;17.16;nan
4617;BME280;2321;42.704;23.384;2022-09-09T04:43:25;95650.28;;;17.19;nan
4617;BME280;2321;42.704;23.384;2022-09-09T04:45:54;95651.22;;;17.25;nan
4617;BME280;2321;42.704;23.384;2022-09-09T04:48:21;95657.44;;;17.26;nan
4617;BME280;2321;42.704;23.384;2022-09-09T04:50:55;95657.91;;;17.23;nan
4617;BME280;2321;42.704;23.384;2022-09-09T04:53:23;95648.66;;;17.30;nan
4617;BME280;2321;42.704;23.384;2022-09-09T04:55:51;95643.06;;;17.32;nan
4617;BME280;2321;42.704;23.384;2022-09-09T04:58:18;95648.34;;;17.39;nan
4617;BME280;2321;42.704;23.384;2022-09-09T05:00:47;95638.84;;;17.36;nan
4617;BME280;2321;42.704;23.384;2022-09-09T05:03:15;95639.34;;;17.45;nan
4617;BME280;2321;42.704;23.384;2022-09-09T05:05:42;95636.56;;;17.52;nan
4617;BME280;2321;42.704;23.384;2022-09-09T05:08:10;95636.81;;;17.62;nan
4617;BME280;2321;42.704;23.384;2022-09-09T05:10:38;95634.81;;;17.70;nan
4617;BME280;2321;42.704;23.384;2022-09-09T05:13:07;95636.13;;;17.79;nan
4617;BME280;2321;42.704;23.384;2022-09-09T05:15:34;95633.13;;;17.88;nan
4617;BME280;2321;42.704;23.384;2022-09-09T05:18:02;95628.41;;;17.95;nan
4617;BME280;2321;42.704;23.384;2022-09-09T05:20:30;95633.91;;;18.00;nan
4617;BME280;2321;42.704;23.384;2022-09-09T05:22:57;95639.31;;;18.00;nan
4617;BME280;2321;42.704;23.384;2022-09-09T05:25:24;95641.19;;;18.12;nan
4617;BME280;2321;42.704;23.384;2022-09-09T05:27:52;95639.44;;;18.17;nan
4617;BME280;2321;42.704;23.384;2022-09-09T05:30:20;95628.91;;;18.28;nan
4617;BME280;2321;42.704;23.384;2022-09-09T05:32:48;95626.69;;;18.37;nan
4617;BME280;2321;42.704;23.384;2022-09-09T05:35:15;95626.53;;;18.44;nan
4617;BME280;2321;42.704;23.384;2022-09-09T05:37:45;95618.78;;;18.59;nan
4617;BME280;2321;42.704;23.384;2022-09-09T05:40:13;95621.69;;;18.70;nan
4617;BME280;2321;42.704;23.384;2022-09-09T05:42:40;95628.09;;;18.81;nan
4617;BME280;2321;42.704;23.384;2022-09-09T05:45:08;95631.22;;;18.90;nan
4617;BME280;2321;42.704;23.384;2022-09-09T05:47:36;95637.97;;;19.04;nan
4617;BME280;2321;42.704;23.384;2022-09-09T05:50:03;95635.16;;;19.11;nan
4617;BME280;2321;42.704;23.384;2022-09-09T05:52:31;95638.97;;;19.27;nan
4617;BME280;2321;42.704;23.384;2022-09-09T05:54:59;95638.84;;;19.34;nan
4617;BME280;2321;42.704;23.384;2022-09-09T05:57:26;95636.41;;;19.50;nan
4617;BME280;2321;42.704;23.384;2022-09-09T05:59:53;95645.25;;;19.63;nan
4617;BME280;2321;42.704;23.384;2022-09-09T06:02:20;95642.22;;;19.76;nan
4617;BME280;2321;42.704;23.384;2022-09-09T06:04:47;95637.06;;;19.92;nan
4617;BME280;2321;42.704;23.384;2022-09-09T06:07:14;95652.88;;;20.00;nan
4617;BME280;2321;42.704;23.384;2022-09-09T06:09:42;95655.63;;;20.06;nan
4617;BME280;2321;42.704;23.384;2022-09-09T06:12:10;95660.00;;;20.24;nan
4617;BME280;2321;42.704;23.384;2022-09-09T06:14:37;95663.34;;;20.31;nan
4617;BME280;2321;42.704;23.384;2022-09-09T06:17:04;95651.59;;;20.43;nan
4617;BME280;2321;42.704;23.384;2022-09-09T06:19:32;95649.06;;;20.53;nan
4617;BME280;2321;42.704;23.384;2022-09-09T06:21:59;95644.59;;;20.64;nan
4617;BME280;2321;42.704;23.384;2022-09-09T06:24:26;95656.59;;;20.74;nan
4617;BME280;2321;42.704;23.384;2022-09-09T06:26:53;95656.75;;;20.84;nan
4617;BME280;2321;42.704;23.384;2022-09-09T06:29:22;95654.16;;;20.95;nan
4617;BME280;2321;42.704;23.384;2022-09-09T06:31:49;95659.44;;;21.07;nan
4617;BME280;2321;42.704;23.384;2022-09-09T06:34:16;95656.56;;;21.14;nan
4617;BME280;2321;42.704;23.384;2022-09-09T06:36:43;95655.03;;;21.23;nan
4617;BME280;2321;42.704;23.384;2022-09-09T06:39:11;95652.38;;;21.28;nan
4617;BME280;2321;42.704;23.384;2022-09-09T06:41:39;95642.50;;;21.44;nan
4617;BME280;2321;42.704;23.384;2022-09-09T06:44:06;95635.56;;;21.54;nan
4617;BME280;2321;42.704;23.384;2022-09-09T06:46:34;95637.53;;;21.59;nan
4617;BME280;2321;42.704;23.384;2022-09-09T06:49:01;95629.47;;;21.69;nan
4617;BME280;2321;42.704;23.384;2022-09-09T06:51:30;95629.56;;;21.80;nan
4617;BME280;2321;42.704;23.384;2022-09-09T06:53:58;95635.31;;;21.88;nan
4617;BME280;2321;42.704;23.384;2022-09-09T06:56:28;95648.16;;;21.98;nan
4617;BME280;2321;42.704;23.384;2022-09-09T06:58:57;95656.34;;;22.09;nan
4617;BME280;2321;42.704;23.384;2022-09-09T07:01:28;95647.19;;;22.15;nan
4617;BME280;2321;42.704;23.384;2022-09-09T07:03:57;95651.56;;;22.22;nan
4617;BME280;2321;42.704;23.384;2022-09-09T07:06:26;95649.91;;;22.20;nan
4617;BME280;2321;42.704;23.384;2022-09-09T07:08:56;95653.56;;;22.37;nan
4617;BME280;2321;42.704;23.384;2022-09-09T07:11:26;95652.28;;;22.50;nan
4617;BME280;2321;42.704;23.384;2022-09-09T07:13:54;95655.00;;;22.55;nan
4617;BME280;2321;42.704;23.384;2022-09-09T07:16:23;95644.75;;;22.68;nan
4617;BME280;2321;42.704;23.384;2022-09-09T07:18:51;95636.44;;;22.80;nan
4617;BME280;2321;42.704;23.384;2022-09-09T07:21:22;95646.22;;;22.86;nan
4617;BME280;2321;42.704;23.384;2022-09-09T07:23:49;95644.88;;;22.94;nan
4617;BME280;2321;42.704;23.384;2022-09-09T07:26:19;95647.06;;;22.97;nan
4617;BME280;2321;42.704;23.384;2022-09-09T07:28:46;95644.41;;;23.07;nan
4617;BME280;2321;42.704;23.384;2022-09-09T07:31:15;95639.50;;;22.99;nan
4617;BME280;2321;42.704;23.384;2022-09-09T07:33:43;95641.97;;;23.11;nan
4617;BME280;2321;42.704;23.384;2022-09-09T07:36:13;95641.47;;;23.30;nan
4617;BME280;2321;42.704;23.384;2022-09-09T07:38:43;95635.22;;;23.40;nan
4617;BME280;2321;42.704;23.384;2022-09-09T07:41:12;95628.47;;;23.48;nan
4617;BME280;2321;42.704;23.384;2022-09-09T07:43:40;95634.16;;;23.46;nan
4617;BME280;2321;42.704;23.384;2022-09-09T07:46:08;95638.78;;;23.51;nan
4617;BME280;2321;42.704;23.384;2022-09-09T07:48:36;95646.97;;;23.61;nan
4617;BME280;2321;42.704;23.384;2022-09-09T07:51:08;95642.38;;;23.72;nan
4617;BME280;2321;42.704;23.384;2022-09-09T07:53:36;95647.25;;;23.81;nan
4617;BME280;2321;42.704;23.384;2022-09-09T07:56:07;95643.19;;;23.94;nan
4617;BME280;2321;42.704;23.384;2022-09-09T07:58:35;95641.81;;;23.97;nan
4617;BME280;2321;42.704;23.384;2022-09-09T08:01:07;95642.09;;;24.00;nan
4617;BME280;2321;42.704;23.384;2022-09-09T08:03:34;95630.66;;;24.14;nan
4617;BME280;2321;42.704;23.384;2022-09-09T08:06:02;95636.09;;;24.35;nan
4617;BME280;2321;42.704;23.384;2022-09-09T08:08:29;95644.75;;;24.53;nan
4617;BME280;2321;42.704;23.384;2022-09-09T08:11:06;95636.81;;;24.67;nan
4617;BME280;2321;42.704;23.384;2022-09-09T08:13:34;95637.31;;;24.79;nan
4617;BME280;2321;42.704;23.384;2022-09-09T08:16:06;95638.34;;;24.94;nan
4617;BME280;2321;42.704;23.384;2022-09-09T08:18:34;95624.13;;;25.02;nan
4617;BME280;2321;42.704;23.384;2022-09-09T08:21:09;95622.53;;;25.07;nan
4617;BME280;2321;42.704;23.384;2022-09-09T08:23:38;95628.44;;;25.19;nan
4617;BME280;2321;42.704;23.384;2022-09-09T08:26:11;95629.75;;;25.27;nan
4617;BME280;2321;42.704;23.384;2022-09-09T08:28:39;95623.16;;;25.39;nan
4617;BME280;2321;42.704;23.384;2022-09-09T08:31:08;95629.41;;;25.44;nan
4617;BME280;2321;42.704;23.384;2022-09-09T08:33:36;95628.63;;;25.39;nan
4617;BME280;2321;42.704;23.384;2022-09-09T08:36:05;95626.63;;;25.50;nan
4617;BME280;2321;42.704;23.384;2022-09-09T08:38:33;95619.47;;;25.59;nan
4617;BME280;2321;42.704;23.384;2022-09-09T08:43:51;95626.56;;;25.60;nan
4617;BME280;2321;42.704;23.384;2022-09-09T08:46:27;95617.50;;;25.65;nan
4617;BME280;2321;42.704;23.384;2022-09-09T08:49:04;95612.94;;;25.60;nan
4617;BME280;2321;42.704;23.384;2022-09-09T08:51:34;95609.66;;;25.58;nan
4617;BME280;2321;42.704;23.384;2022-09-09T08:54:03;95605.84;;;25.59;nan
4617;BME280;2321;42.704;23.384;2022-09-09T08:56:31;95607.13;;;25.67;nan
4617;BME280;2321;42.704;23.384;2022-09-09T08:59:01;95607.63;;;25.74;nan
4617;BME280;2321;42.704;23.384;2022-09-09T09:01:44;95606.81;;;25.79;nan
4617;BME280;2321;42.704;23.384;2022-09-09T09:04:30;95612.66;;;25.97;nan
4617;BME280;2321;42.704;23.384;2022-09-09T09:07:08;95607.63;;;26.09;nan
4617;BME280;2321;42.704;23.384;2022-09-09T09:09:45;95611.13;;;26.15;nan
4617;BME280;2321;42.704;23.384;2022-09-09T09:12:16;95607.25;;;26.21;nan
4617;BME280;2321;42.704;23.384;2022-09-09T09:14:48;95610.88;;;26.11;nan
4617;BME280;2321;42.704;23.384;2022-09-09T09:17:18;95609.50;;;26.14;nan
4617;BME280;2321;42.704;23.384;2022-09-09T09:19:47;95615.66;;;26.25;nan
4617;BME280;2321;42.704;23.384;2022-09-09T09:22:18;95602.81;;;26.26;nan
4617;BME280;2321;42.704;23.384;2022-09-09T09:24:51;95594.59;;;26.31;nan
4617;BME280;2321;42.704;23.384;2022-09-09T09:27:30;95609.81;;;26.37;nan
4617;BME280;2321;42.704;23.384;2022-09-09T09:30:02;95596.78;;;26.29;nan
4617;BME280;2321;42.704;23.384;2022-09-09T09:32:32;95596.53;;;26.25;nan
4617;BME280;2321;42.704;23.384;2022-09-09T09:35:02;95609.03;;;26.31;nan
4617;BME280;2321;42.704;23.384;2022-09-09T09:37:34;95599.47;;;26.34;nan
4617;BME280;2321;42.704;23.384;2022-09-09T09:40:08;95597.44;;;26.45;nan
4617;BME280;2321;42.704;23.384;2022-09-09T09:42:36;95595.81;;;26.44;nan
4617;BME280;2321;42.704;23.384;2022-09-09T09:45:17;95596.06;;;26.48;nan
4617;BME280;2321;42.704;23.384;2022-09-09T09:47:58;95583.75;;;26.50;nan
4617;BME280;2321;42.704;23.384;2022-09-09T09:50:25;95583.75;;;26.50;nan
4617;BME280;2321;42.704;23.384;2022-09-09T09:52:56;95583.19;;;26.53;nan
4617;BME280;2321;42.704;23.384;2022-09-09T09:55:24;95577.13;;;26.57;nan
4617;BME280;2321;42.704;23.384;2022-09-09T09:57:53;95579.22;;;26.65;nan
4617;BME280;2321;42.704;23.384;2022-09-09T10:00:22;95569.91;;;26.66;nan
4617;BME280;2321;42.704;23.384;2022-09-09T10:02:50;95568.25;;;26.70;nan
4617;BME280;2321;42.704;23.384;2022-09-09T10:05:21;95571.00;;;26.65;nan
4617;BME280;2321;42.704;23.384;2022-09-09T10:08:00;95573.53;;;26.61;nan
4617;BME280;2321;42.704;23.384;2022-09-09T10:10:36;95576.72;;;26.69;nan
4617;BME280;2321;42.704;23.384;2022-09-09T10:13:12;95581.06;;;26.70;nan
4617;BME280;2321;42.704;23.384;2022-09-09T10:15:50;95583.22;;;26.73;nan
4617;BME280;2321;42.704;23.384;2022-09-09T10:18:38;95592.75;;;26.75;nan
4617;BME280;2321;42.704;23.384;2022-09-09T10:21:20;95594.88;;;26.79;nan
4617;BME280;2321;42.704;23.384;2022-09-09T10:24:09;95597.16;;;26.71;nan
4617;BME280;2321;42.704;23.384;2022-09-09T10:26:44;95601.06;;;26.65;nan
4617;BME280;2321;42.704;23.384;2022-09-09T10:29:30;95579.59;;;26.58;nan
4617;BME280;2321;42.704;23.384;2022-09-09T10:32:09;95590.28;;;26.54;nan
4617;BME280;2321;42.704;23.384;2022-09-09T10:34:55;95590.91;;;26.41;nan
4617;BME280;2321;42.704;23.384;2022-09-09T10:40:25;95592.91;;;26.35;nan
4617;BME280;2321;42.704;23.384;2022-09-09T10:43:01;95593.22;;;26.33;nan
4617;BME280;2321;42.704;23.384;2022-09-09T10:45:39;95591.63;;;26.27;nan
4617;BME280;2321;42.704;23.384;2022-09-09T10:48:30;95595.19;;;26.28;nan
4617;BME280;2321;42.704;23.384;2022-09-09T10:51:07;95599.25;;;26.30;nan
4617;BME280;2321;42.704;23.384;2022-09-09T10:53:48;95601.25;;;26.19;nan
4617;BME280;2321;42.704;23.384;2022-09-09T10:56:21;95602.56;;;26.22;nan
4617;BME280;2321;42.704;23.384;2022-09-09T10:58:54;95590.91;;;26.16;nan
4617;BME280;2321;42.704;23.384;2022-09-09T11:01:25;95591.47;;;26.18;nan
4617;BME280;2321;42.704;23.384;2022-09-09T11:03:59;95593.38;;;26.18;nan
4617;BME280;2321;42.704;23.384;2022-09-09T11:06:32;95595.00;;;26.19;nan
4617;BME280;2321;42.704;23.384;2022-09-09T11:09:02;95579.78;;;26.13;nan
4617;BME280;2321;42.704;23.384;2022-09-09T11:11:34;95597.19;;;26.17;nan
4617;BME280;2321;42.704;23.384;2022-09-09T11:14:10;95594.50;;;26.11;nan
4617;BME280;2321;42.704;23.384;2022-09-09T11:16:41;95595.03;;;26.14;nan
4617;BME280;2321;42.704;23.384;2022-09-09T11:19:19;95587.19;;;26.07;nan
4617;BME280;2321;42.704;23.384;2022-09-09T11:21:48;95575.69;;;26.10;nan
4617;BME280;2321;42.704;23.384;2022-09-09T11:24:21;95575.41;;;26.11;nan
4617;BME280;2321;42.704;23.384;2022-09-09T11:26:54;95568.28;;;26.16;nan
4617;BME280;2321;42.704;23.384;2022-09-09T11:29:37;95571.03;;;26.16;nan
4617;BME280;2321;42.704;23.384;2022-09-09T11:32:22;95580.25;;;26.20;nan
4617;BME280;2321;42.704;23.384;2022-09-09T11:35:17;95568.75;;;26.23;nan
4617;BME280;2321;42.704;23.384;2022-09-09T11:38:18;95556.81;;;26.19;nan
4617;BME280;2321;42.704;23.384;2022-09-09T11:40:46;95548.56;;;26.24;nan
4617;BME280;2321;42.704;23.384;2022-09-09T11:43:23;95549.56;;;26.28;nan
4617;BME280;2321;42.704;23.384;2022-09-09T11:45:51;95534.56;;;26.31;nan
4617;BME280;2321;42.704;23.384;2022-09-09T11:48:26;95531.78;;;26.36;nan
4617;BME280;2321;42.704;23.384;2022-09-09T11:51:04;95533.91;;;26.39;nan
4617;BME280;2321;42.704;23.384;2022-09-09T11:53:33;95527.06;;;26.42;nan
4617;BME280;2321;42.704;23.384;2022-09-09T11:56:06;95509.03;;;26.41;nan
4617;BME280;2321;42.704;23.384;2022-09-09T11:58:40;95485.81;;;26.43;nan
4617;BME280;2321;42.704;23.384;2022-09-09T12:01:35;95494.81;;;26.49;nan
4617;BME280;2321;42.704;23.384;2022-09-09T12:04:21;95511.84;;;26.60;nan
4617;BME280;2321;42.704;23.384;2022-09-09T12:06:58;95514.50;;;26.65;nan
4617;BME280;2321;42.704;23.384;2022-09-09T12:09:38;95512.16;;;26.78;nan
4617;BME280;2321;42.704;23.384;2022-09-09T12:12:31;95514.22;;;26.86;nan
4617;BME280;2321;42.704;23.384;2022-09-09T12:15:18;95506.56;;;26.89;nan
4617;BME280;2321;42.704;23.384;2022-09-09T12:17:47;95504.63;;;26.89;nan
4617;BME280;2321;42.704;23.384;2022-09-09T12:20:17;95493.19;;;26.87;nan
4617;BME280;2321;42.704;23.384;2022-09-09T12:22:55;95492.31;;;26.92;nan
4617;BME280;2321;42.704;23.384;2022-09-09T12:25:30;95488.16;;;26.94;nan
4617;BME280;2321;42.704;23.384;2022-09-09T12:28:05;95503.88;;;27.03;nan
4617;BME280;2321;42.704;23.384;2022-09-09T12:30:43;95505.66;;;27.13;nan
4617;BME280;2321;42.704;23.384;2022-09-09T12:33:16;95498.78;;;27.15;nan
4617;BME280;2321;42.704;23.384;2022-09-09T12:35:47;95490.81;;;27.19;nan
4617;BME280;2321;42.704;23.384;2022-09-09T12:38:24;95489.13;;;27.23;nan
4617;BME280;2321;42.704;23.384;2022-09-09T12:40:56;95480.19;;;27.17;nan
4617;BME280;2321;42.704;23.384;2022-09-09T12:43:25;95480.19;;;27.17;nan
4617;BME280;2321;42.704;23.384;2022-09-09T12:45:55;95477.44;;;27.17;nan
4617;BME280;2321;42.704;23.384;2022-09-09T12:48:29;95464.59;;;27.18;nan
4617;BME280;2321;42.704;23.384;2022-09-09T12:50:57;95474.28;;;27.10;nan
4617;BME280;2321;42.704;23.384;2022-09-09T12:53:29;95474.50;;;27.14;nan
4617;BME280;2321;42.704;23.384;2022-09-09T12:56:01;95467.91;;;27.15;nan
4617;BME280;2321;42.704;23.384;2022-09-09T12:58:30;95465.31;;;27.24;nan
4617;BME280;2321;42.704;23.384;2022-09-09T13:00:59;95464.34;;;27.34;nan
4617;BME280;2321;42.704;23.384;2022-09-09T13:03:27;95456.81;;;27.45;nan
4617;BME280;2321;42.704;23.384;2022-09-09T13:05:58;95457.03;;;27.62;nan
4617;BME280;2321;42.704;23.384;2022-09-09T13:08:27;95456.00;;;27.72;nan
4617;BME280;2321;42.704;23.384;2022-09-09T13:10:56;95457.03;;;27.77;nan
4617;BME280;2321;42.704;23.384;2022-09-09T13:13:30;95452.28;;;27.82;nan
4617;BME280;2321;42.704;23.384;2022-09-09T13:16:02;95454.16;;;27.87;nan
4617;BME280;2321;42.704;23.384;2022-09-09T13:18:31;95445.13;;;27.87;nan
4617;BME280;2321;42.704;23.384;2022-09-09T13:20:59;95443.38;;;27.91;nan
4617;BME280;2321;42.704;23.384;2022-09-09T13:23:29;95451.00;;;27.94;nan
4617;BME280;2321;42.704;23.384;2022-09-09T13:25:59;95448.38;;;28.03;nan
4617;BME280;2321;42.704;23.384;2022-09-09T13:28:28;95436.63;;;28.02;nan
4617;BME280;2321;42.704;23.384;2022-09-09T13:30:57;95433.28;;;28.05;nan
4617;BME280;2321;42.704;23.384;2022-09-09T13:33:30;95429.94;;;28.09;nan
4617;BME280;2321;42.704;23.384;2022-09-09T13:36:00;95425.25;;;28.09;nan
4617;BME280;2321;42.704;23.384;2022-09-09T13:38:32;95419.47;;;28.11;nan
4617;BME280;2321;42.704;23.384;2022-09-09T13:41:02;95418.16;;;28.08;nan
4617;BME280;2321;42.704;23.384;2022-09-09T13:43:32;95423.53;;;27.99;nan
4617;BME280;2321;42.704;23.384;2022-09-09T13:46:23;95424.25;;;27.91;nan
4617;BME280;2321;42.704;23.384;2022-09-09T13:48:54;95426.78;;;27.87;nan
4617;BME280;2321;42.704;23.384;2022-09-09T13:51:29;95415.53;;;27.89;nan
4617;BME280;2321;42.704;23.384;2022-09-09T13:53:58;95413.91;;;27.88;nan
4617;BME280;2321;42.704;23.384;2022-09-09T13:56:26;95406.72;;;27.92;nan
4617;BME280;2321;42.704;23.384;2022-09-09T13:58:53;95405.63;;;27.93;nan
4617;BME280;2321;42.704;23.384;2022-09-09T14:01:20;95397.28;;;27.98;nan